sensor_id;sensor_type;location;lat;lon;timestamp;P1;durP1;ratioP1;P2;durP2;ratioP2
2838;SDS011;1427;48.510;9.060;2022-07-21T00:02:07;59.00;;;9.60;;
2838;SDS011;1427;48.510;9.060;2022-07-21T00:04:35;60.87;;;10.83;;
2838;SDS011;1427;48.510;9.060;2022-07-21T00:07:03;60.40;;;10.40;;
2838;SDS011;1427;48.510;9.060;2022-07-21T00:09:33;68.53;;;11.00;;
2838;SDS011;1427;48.510;9.060;2022-07-21T00:12:01;63.47;;;10.53;;
2838;SDS011;1427;48.510;9.060;2022-07-21T00:14:30;59.60;;;10.17;;
2838;SDS011;1427;48.510;9.060;2022-07-21T00:16:58;56.33;;;8.70;;
2838;SDS011;1427;48.510;9.060;2022-07-21T00:19:26;61.83;;;10.40;;
2838;SDS011;1427;48.510;9.060;2022-07-21T00:21:54;62.07;;;10.07;;
2838;SDS011;1427;48.510;9.060;2022-07-21T00:24:22;56.27;;;9.23;;
2838;SDS011;1427;48.510;9.060;2022-07-21T00:26:52;61.80;;;9.13;;
2838;SDS011;1427;48.510;9.060;2022-07-21T00:29:20;62.40;;;10.10;;
2838;SDS011;1427;48.510;9.060;2022-07-21T00:31:48;60.83;;;9.13;;
2838;SDS011;1427;48.510;9.060;2022-07-21T00:34:16;56.60;;;8.87;;
2838;SDS011;1427;48.510;9.060;2022-07-21T00:36:44;55.93;;;7.87;;
2838;SDS011;1427;48.510;9.060;2022-07-21T00:39:12;63.53;;;8.27;;
2838;SDS011;1427;48.510;9.060;2022-07-21T00:41:41;56.67;;;8.60;;
2838;SDS011;1427;48.510;9.060;2022-07-21T00:44:19;59.73;;;9.80;;
2838;SDS011;1427;48.510;9.060;2022-07-21T00:46:48;57.57;;;8.83;;
2838;SDS011;1427;48.510;9.060;2022-07-21T00:49:16;55.80;;;8.27;;
2838;SDS011;1427;48.510;9.060;2022-07-21T00:51:44;60.93;;;9.57;;
2838;SDS011;1427;48.510;9.060;2022-07-21T00:54:13;57.37;;;9.17;;
2838;SDS011;1427;48.510;9.060;2022-07-21T00:56:43;61.60;;;11.17;;
2838;SDS011;1427;48.510;9.060;2022-07-21T00:59:12;59.70;;;9.77;;
2838;SDS011;1427;48.510;9.060;2022-07-21T01:01:43;56.37;;;9.30;;
2838;SDS011;1427;48.510;9.060;2022-07-21T01:04:11;61.30;;;11.70;;
2838;SDS011;1427;48.510;9.060;2022-07-21T01:06:39;60.40;;;9.30;;
2838;SDS011;1427;48.510;9.060;2022-07-21T01:09:07;58.40;;;9.20;;
2838;SDS011;1427;48.510;9.060;2022-07-21T01:11:37;58.63;;;8.17;;
2838;SDS011;1427;48.510;9.060;2022-07-21T01:14:05;61.47;;;9.00;;
2838;SDS011;1427;48.510;9.060;2022-07-21T01:16:33;55.80;;;8.40;;
2838;SDS011;1427;48.510;9.060;2022-07-21T01:19:03;59.80;;;8.60;;
2838;SDS011;1427;48.510;9.060;2022-07-21T01:21:35;60.27;;;10.07;;
2838;SDS011;1427;48.510;9.060;2022-07-21T01:24:05;58.03;;;8.70;;
2838;SDS011;1427;48.510;9.060;2022-07-21T01:26:39;58.87;;;9.30;;
2838;SDS011;1427;48.510;9.060;2022-07-21T01:29:08;59.40;;;8.20;;
2838;SDS011;1427;48.510;9.060;2022-07-21T01:31:37;58.60;;;8.60;;
2838;SDS011;1427;48.510;9.060;2022-07-21T01:34:08;59.67;;;9.07;;
2838;SDS011;1427;48.510;9.060;2022-07-21T01:36:38;58.23;;;8.10;;
2838;SDS011;1427;48.510;9.060;2022-07-21T01:39:06;57.90;;;9.00;;
2838;SDS011;1427;48.510;9.060;2022-07-21T01:41:52;62.47;;;10.23;;
2838;SDS011;1427;48.510;9.060;2022-07-21T01:44:20;59.10;;;8.00;;
2838;SDS011;1427;48.510;9.060;2022-07-21T01:46:49;57.97;;;8.30;;
2838;SDS011;1427;48.510;9.060;2022-07-21T01:49:19;58.87;;;8.03;;
2838;SDS011;1427;48.510;9.060;2022-07-21T01:51:49;59.47;;;9.27;;
2838;SDS011;1427;48.510;9.060;2022-07-21T01:54:17;61.30;;;9.27;;
2838;SDS011;1427;48.510;9.060;2022-07-21T01:56:49;56.40;;;7.83;;
2838;SDS011;1427;48.510;9.060;2022-07-21T01:59:18;56.57;;;8.13;;
2838;SDS011;1427;48.510;9.060;2022-07-21T02:01:46;59.17;;;8.33;;
2838;SDS011;1427;48.510;9.060;2022-07-21T02:04:14;57.63;;;8.40;;
2838;SDS011;1427;48.510;9.060;2022-07-21T02:06:42;57.97;;;8.17;;
2838;SDS011;1427;48.510;9.060;2022-07-21T02:09:12;56.03;;;7.70;;
2838;SDS011;1427;48.510;9.060;2022-07-21T02:11:40;56.27;;;7.30;;
2838;SDS011;1427;48.510;9.060;2022-07-21T02:14:08;57.17;;;8.47;;
2838;SDS011;1427;48.510;9.060;2022-07-21T02:16:36;57.67;;;7.90;;
2838;SDS011;1427;48.510;9.060;2022-07-21T02:19:04;62.80;;;7.97;;
2838;SDS011;1427;48.510;9.060;2022-07-21T02:21:35;53.80;;;6.53;;
2838;SDS011;1427;48.510;9.060;2022-07-21T02:24:03;54.70;;;6.60;;
2838;SDS011;1427;48.510;9.060;2022-07-21T02:26:33;56.47;;;6.57;;
2838;SDS011;1427;48.510;9.060;2022-07-21T02:29:01;54.00;;;5.83;;
2838;SDS011;1427;48.510;9.060;2022-07-21T02:31:29;53.97;;;6.50;;
2838;SDS011;1427;48.510;9.060;2022-07-21T02:33:57;53.60;;;5.87;;
2838;SDS011;1427;48.510;9.060;2022-07-21T02:36:25;54.70;;;6.50;;
2838;SDS011;1427;48.510;9.060;2022-07-21T02:38:53;54.90;;;7.07;;
2838;SDS011;1427;48.510;9.060;2022-07-21T02:41:22;55.80;;;7.27;;
2838;SDS011;1427;48.510;9.060;2022-07-21T02:43:51;55.23;;;7.20;;
2838;SDS011;1427;48.510;9.060;2022-07-21T02:46:19;54.40;;;6.13;;
2838;SDS011;1427;48.510;9.060;2022-07-21T02:48:47;53.10;;;6.70;;
2838;SDS011;1427;48.510;9.060;2022-07-21T02:51:16;51.57;;;5.83;;
2838;SDS011;1427;48.510;9.060;2022-07-21T02:53:44;53.67;;;7.10;;
2838;SDS011;1427;48.510;9.060;2022-07-21T02:56:12;52.93;;;6.43;;
2838;SDS011;1427;48.510;9.060;2022-07-21T02:58:40;53.73;;;6.27;;
2838;SDS011;1427;48.510;9.060;2022-07-21T03:01:09;52.77;;;5.97;;
2838;SDS011;1427;48.510;9.060;2022-07-21T03:03:37;55.60;;;7.20;;
2838;SDS011;1427;48.510;9.060;2022-07-21T03:06:05;54.77;;;6.63;;
2838;SDS011;1427;48.510;9.060;2022-07-21T03:08:34;55.63;;;6.53;;
2838;SDS011;1427;48.510;9.060;2022-07-21T03:11:02;57.43;;;6.70;;
2838;SDS011;1427;48.510;9.060;2022-07-21T03:13:30;54.33;;;6.83;;
2838;SDS011;1427;48.510;9.060;2022-07-21T03:15:58;56.77;;;6.90;;
2838;SDS011;1427;48.510;9.060;2022-07-21T03:18:28;53.10;;;6.33;;
2838;SDS011;1427;48.510;9.060;2022-07-21T03:20:56;55.57;;;7.00;;
2838;SDS011;1427;48.510;9.060;2022-07-21T03:23:24;53.67;;;6.17;;
2838;SDS011;1427;48.510;9.060;2022-07-21T03:25:52;53.50;;;6.17;;
2838;SDS011;1427;48.510;9.060;2022-07-21T03:28:20;55.17;;;6.33;;
2838;SDS011;1427;48.510;9.060;2022-07-21T03:30:48;52.30;;;6.33;;
2838;SDS011;1427;48.510;9.060;2022-07-21T03:33:16;53.10;;;6.60;;
2838;SDS011;1427;48.510;9.060;2022-07-21T03:35:46;53.37;;;6.00;;
2838;SDS011;1427;48.510;9.060;2022-07-21T03:38:14;60.63;;;7.07;;
2838;SDS011;1427;48.510;9.060;2022-07-21T03:40:42;54.07;;;5.50;;
2838;SDS011;1427;48.510;9.060;2022-07-21T03:43:10;52.20;;;5.70;;
2838;SDS011;1427;48.510;9.060;2022-07-21T03:45:38;54.00;;;6.87;;
2838;SDS011;1427;48.510;9.060;2022-07-21T03:48:06;57.10;;;6.40;;
2838;SDS011;1427;48.510;9.060;2022-07-21T03:50:36;55.43;;;7.27;;
2838;SDS011;1427;48.510;9.060;2022-07-21T03:53:07;54.83;;;6.67;;
2838;SDS011;1427;48.510;9.060;2022-07-21T03:55:35;58.23;;;6.63;;
2838;SDS011;1427;48.510;9.060;2022-07-21T03:58:04;54.40;;;6.60;;
2838;SDS011;1427;48.510;9.060;2022-07-21T04:00:34;52.70;;;5.80;;
2838;SDS011;1427;48.510;9.060;2022-07-21T04:03:05;53.73;;;6.40;;
2838;SDS011;1427;48.510;9.060;2022-07-21T04:05:34;54.30;;;6.63;;
2838;SDS011;1427;48.510;9.060;2022-07-21T04:08:03;56.40;;;6.73;;
2838;SDS011;1427;48.510;9.060;2022-07-21T04:10:34;52.60;;;6.07;;
2838;SDS011;1427;48.510;9.060;2022-07-21T04:13:05;53.80;;;7.30;;
2838;SDS011;1427;48.510;9.060;2022-07-21T04:15:35;66.00;;;7.53;;
2838;SDS011;1427;48.510;9.060;2022-07-21T04:18:04;55.97;;;7.30;;
2838;SDS011;1427;48.510;9.060;2022-07-21T04:20:33;55.20;;;6.63;;
2838;SDS011;1427;48.510;9.060;2022-07-21T04:23:01;53.47;;;6.00;;
2838;SDS011;1427;48.510;9.060;2022-07-21T04:25:31;55.90;;;6.50;;
2838;SDS011;1427;48.510;9.060;2022-07-21T04:28:00;53.43;;;6.70;;
2838;SDS011;1427;48.510;9.060;2022-07-21T04:30:28;55.60;;;6.23;;
2838;SDS011;1427;48.510;9.060;2022-07-21T04:32:56;53.93;;;6.73;;
2838;SDS011;1427;48.510;9.060;2022-07-21T04:35:24;53.50;;;6.40;;
2838;SDS011;1427;48.510;9.060;2022-07-21T04:37:52;53.43;;;6.93;;
2838;SDS011;1427;48.510;9.060;2022-07-21T04:40:20;54.93;;;6.37;;
2838;SDS011;1427;48.510;9.060;2022-07-21T04:42:48;56.10;;;7.30;;
2838;SDS011;1427;48.510;9.060;2022-07-21T04:45:18;53.63;;;6.60;;
2838;SDS011;1427;48.510;9.060;2022-07-21T04:47:47;52.07;;;5.77;;
2838;SDS011;1427;48.510;9.060;2022-07-21T04:50:17;60.40;;;7.13;;
2838;SDS011;1427;48.510;9.060;2022-07-21T04:52:46;54.67;;;7.83;;
2838;SDS011;1427;48.510;9.060;2022-07-21T04:55:15;53.77;;;6.73;;
2838;SDS011;1427;48.510;9.060;2022-07-21T04:57:44;59.17;;;7.80;;
2838;SDS011;1427;48.510;9.060;2022-07-21T05:00:14;56.47;;;8.47;;
2838;SDS011;1427;48.510;9.060;2022-07-21T05:02:45;58.07;;;7.87;;
2838;SDS011;1427;48.510;9.060;2022-07-21T05:05:14;52.50;;;6.00;;
2838;SDS011;1427;48.510;9.060;2022-07-21T05:07:42;56.40;;;8.03;;
2838;SDS011;1427;48.510;9.060;2022-07-21T05:10:12;54.77;;;6.50;;
2838;SDS011;1427;48.510;9.060;2022-07-21T05:12:41;53.67;;;5.90;;
2838;SDS011;1427;48.510;9.060;2022-07-21T05:15:10;55.37;;;6.63;;
2838;SDS011;1427;48.510;9.060;2022-07-21T05:17:39;58.00;;;7.50;;
2838;SDS011;1427;48.510;9.060;2022-07-21T05:20:09;54.97;;;6.70;;
2838;SDS011;1427;48.510;9.060;2022-07-21T05:22:38;55.47;;;7.83;;
2838;SDS011;1427;48.510;9.060;2022-07-21T05:25:07;52.30;;;6.40;;
2838;SDS011;1427;48.510;9.060;2022-07-21T05:27:35;55.93;;;7.13;;
2838;SDS011;1427;48.510;9.060;2022-07-21T05:30:03;58.23;;;7.60;;
2838;SDS011;1427;48.510;9.060;2022-07-21T05:32:32;54.80;;;7.27;;
2838;SDS011;1427;48.510;9.060;2022-07-21T05:35:00;56.60;;;7.17;;
2838;SDS011;1427;48.510;9.060;2022-07-21T05:37:35;56.37;;;8.47;;
2838;SDS011;1427;48.510;9.060;2022-07-21T05:40:04;58.17;;;7.10;;
2838;SDS011;1427;48.510;9.060;2022-07-21T05:42:33;53.60;;;7.57;;
2838;SDS011;1427;48.510;9.060;2022-07-21T05:45:01;56.67;;;7.93;;
2838;SDS011;1427;48.510;9.060;2022-07-21T05:47:32;53.47;;;6.57;;
2838;SDS011;1427;48.510;9.060;2022-07-21T05:50:01;53.57;;;6.80;;
2838;SDS011;1427;48.510;9.060;2022-07-21T05:52:30;54.47;;;6.30;;
2838;SDS011;1427;48.510;9.060;2022-07-21T05:54:59;55.47;;;6.60;;
2838;SDS011;1427;48.510;9.060;2022-07-21T05:57:27;55.23;;;7.20;;
2838;SDS011;1427;48.510;9.060;2022-07-21T05:59:55;54.90;;;6.60;;
2838;SDS011;1427;48.510;9.060;2022-07-21T06:02:24;56.37;;;7.80;;
2838;SDS011;1427;48.510;9.060;2022-07-21T06:04:55;56.03;;;6.80;;
2838;SDS011;1427;48.510;9.060;2022-07-21T06:07:23;56.10;;;7.90;;
2838;SDS011;1427;48.510;9.060;2022-07-21T06:09:51;58.30;;;8.00;;
2838;SDS011;1427;48.510;9.060;2022-07-21T06:12:21;56.70;;;8.00;;
2838;SDS011;1427;48.510;9.060;2022-07-21T06:14:49;59.40;;;8.80;;
2838;SDS011;1427;48.510;9.060;2022-07-21T06:17:17;53.43;;;7.37;;
2838;SDS011;1427;48.510;9.060;2022-07-21T06:19:45;55.57;;;7.50;;
2838;SDS011;1427;48.510;9.060;2022-07-21T06:22:13;57.33;;;7.60;;
2838;SDS011;1427;48.510;9.060;2022-07-21T06:24:41;54.50;;;7.20;;
2838;SDS011;1427;48.510;9.060;2022-07-21T06:27:10;55.07;;;7.30;;
2838;SDS011;1427;48.510;9.060;2022-07-21T06:29:39;51.73;;;6.13;;
2838;SDS011;1427;48.510;9.060;2022-07-21T06:32:07;52.87;;;6.43;;
2838;SDS011;1427;48.510;9.060;2022-07-21T06:34:36;56.77;;;7.30;;
2838;SDS011;1427;48.510;9.060;2022-07-21T06:37:04;56.53;;;7.73;;
2838;SDS011;1427;48.510;9.060;2022-07-21T06:39:32;64.90;;;6.63;;
2838;SDS011;1427;48.510;9.060;2022-07-21T06:42:05;52.67;;;5.80;;
2838;SDS011;1427;48.510;9.060;2022-07-21T06:44:34;55.73;;;6.80;;
2838;SDS011;1427;48.510;9.060;2022-07-21T06:47:03;54.90;;;6.87;;
2838;SDS011;1427;48.510;9.060;2022-07-21T06:49:31;55.27;;;7.20;;
2838;SDS011;1427;48.510;9.060;2022-07-21T06:51:59;56.63;;;8.33;;
2838;SDS011;1427;48.510;9.060;2022-07-21T06:54:28;55.80;;;7.33;;
2838;SDS011;1427;48.510;9.060;2022-07-21T06:56:56;57.57;;;7.37;;
2838;SDS011;1427;48.510;9.060;2022-07-21T06:59:23;52.67;;;6.50;;
2838;SDS011;1427;48.510;9.060;2022-07-21T07:01:51;55.00;;;6.30;;
2838;SDS011;1427;48.510;9.060;2022-07-21T07:04:21;54.70;;;7.67;;
2838;SDS011;1427;48.510;9.060;2022-07-21T07:06:49;54.80;;;6.37;;
2838;SDS011;1427;48.510;9.060;2022-07-21T07:09:20;54.43;;;6.07;;
2838;SDS011;1427;48.510;9.060;2022-07-21T07:11:48;53.87;;;5.13;;
2838;SDS011;1427;48.510;9.060;2022-07-21T07:14:38;54.87;;;6.80;;
2838;SDS011;1427;48.510;9.060;2022-07-21T07:17:06;58.03;;;6.97;;
2838;SDS011;1427;48.510;9.060;2022-07-21T07:19:35;52.20;;;6.00;;
2838;SDS011;1427;48.510;9.060;2022-07-21T07:22:03;54.30;;;6.03;;
2838;SDS011;1427;48.510;9.060;2022-07-21T07:24:31;52.80;;;5.50;;
2838;SDS011;1427;48.510;9.060;2022-07-21T07:26:59;54.13;;;6.03;;
2838;SDS011;1427;48.510;9.060;2022-07-21T07:29:27;54.90;;;6.40;;
2838;SDS011;1427;48.510;9.060;2022-07-21T07:31:57;53.97;;;6.57;;
2838;SDS011;1427;48.510;9.060;2022-07-21T07:34:25;53.30;;;6.80;;
2838;SDS011;1427;48.510;9.060;2022-07-21T07:36:55;51.90;;;6.13;;
2838;SDS011;1427;48.510;9.060;2022-07-21T07:39:23;53.27;;;6.77;;
2838;SDS011;1427;48.510;9.060;2022-07-21T07:41:51;53.50;;;6.77;;
2838;SDS011;1427;48.510;9.060;2022-07-21T07:44:20;54.23;;;6.17;;
2838;SDS011;1427;48.510;9.060;2022-07-21T07:46:49;53.43;;;5.77;;
2838;SDS011;1427;48.510;9.060;2022-07-21T07:49:17;53.60;;;6.53;;
2838;SDS011;1427;48.510;9.060;2022-07-21T07:51:45;52.47;;;5.93;;
2838;SDS011;1427;48.510;9.060;2022-07-21T07:54:16;52.47;;;6.37;;
2838;SDS011;1427;48.510;9.060;2022-07-21T07:56:44;53.80;;;6.37;;
2838;SDS011;1427;48.510;9.060;2022-07-21T07:59:12;51.67;;;5.93;;
2838;SDS011;1427;48.510;9.060;2022-07-21T08:01:40;51.47;;;5.67;;
2838;SDS011;1427;48.510;9.060;2022-07-21T08:04:08;52.33;;;5.87;;
2838;SDS011;1427;48.510;9.060;2022-07-21T08:06:36;53.27;;;6.80;;
2838;SDS011;1427;48.510;9.060;2022-07-21T08:09:04;53.60;;;6.47;;
2838;SDS011;1427;48.510;9.060;2022-07-21T08:11:33;55.97;;;7.80;;
2838;SDS011;1427;48.510;9.060;2022-07-21T08:14:01;54.17;;;6.30;;
2838;SDS011;1427;48.510;9.060;2022-07-21T08:16:30;50.80;;;5.33;;
2838;SDS011;1427;48.510;9.060;2022-07-21T08:18:58;51.10;;;5.67;;
2838;SDS011;1427;48.510;9.060;2022-07-21T08:21:26;50.43;;;5.20;;
2838;SDS011;1427;48.510;9.060;2022-07-21T08:24:16;51.80;;;5.13;;
2838;SDS011;1427;48.510;9.060;2022-07-21T08:26:46;53.03;;;5.17;;
2838;SDS011;1427;48.510;9.060;2022-07-21T08:29:14;55.80;;;5.90;;
2838;SDS011;1427;48.510;9.060;2022-07-21T08:31:42;51.40;;;5.30;;
2838;SDS011;1427;48.510;9.060;2022-07-21T08:34:10;52.00;;;5.57;;
2838;SDS011;1427;48.510;9.060;2022-07-21T08:36:38;52.10;;;5.43;;
2838;SDS011;1427;48.510;9.060;2022-07-21T08:39:06;51.37;;;5.60;;
2838;SDS011;1427;48.510;9.060;2022-07-21T08:41:36;51.40;;;5.80;;
2838;SDS011;1427;48.510;9.060;2022-07-21T08:44:05;51.87;;;5.83;;
2838;SDS011;1427;48.510;9.060;2022-07-21T08:46:37;51.87;;;6.00;;
2838;SDS011;1427;48.510;9.060;2022-07-21T08:49:08;51.87;;;5.47;;
2838;SDS011;1427;48.510;9.060;2022-07-21T08:51:37;52.43;;;5.47;;
2838;SDS011;1427;48.510;9.060;2022-07-21T08:54:05;59.80;;;5.47;;
2838;SDS011;1427;48.510;9.060;2022-07-21T08:56:33;49.73;;;4.60;;
2838;SDS011;1427;48.510;9.060;2022-07-21T08:59:01;51.33;;;5.70;;
2838;SDS011;1427;48.510;9.060;2022-07-21T09:01:32;52.53;;;6.57;;
2838;SDS011;1427;48.510;9.060;2022-07-21T09:06:55;53.87;;;5.90;;
2838;SDS011;1427;48.510;9.060;2022-07-21T09:09:25;54.53;;;7.10;;
2838;SDS011;1427;48.510;9.060;2022-07-21T09:11:54;53.90;;;6.30;;
2838;SDS011;1427;48.510;9.060;2022-07-21T09:14:24;52.07;;;5.47;;
2838;SDS011;1427;48.510;9.060;2022-07-21T09:16:56;52.63;;;5.23;;
2838;SDS011;1427;48.510;9.060;2022-07-21T09:19:34;51.13;;;5.50;;
2838;SDS011;1427;48.510;9.060;2022-07-21T09:22:05;52.10;;;6.00;;
2838;SDS011;1427;48.510;9.060;2022-07-21T09:24:39;54.53;;;4.50;;
2838;SDS011;1427;48.510;9.060;2022-07-21T09:27:08;54.17;;;6.57;;
2838;SDS011;1427;48.510;9.060;2022-07-21T09:29:41;50.27;;;4.90;;
2838;SDS011;1427;48.510;9.060;2022-07-21T09:32:14;51.30;;;5.03;;
2838;SDS011;1427;48.510;9.060;2022-07-21T09:34:47;53.37;;;5.53;;
2838;SDS011;1427;48.510;9.060;2022-07-21T09:37:17;52.80;;;5.10;;
2838;SDS011;1427;48.510;9.060;2022-07-21T09:39:47;50.40;;;5.20;;
2838;SDS011;1427;48.510;9.060;2022-07-21T09:42:18;51.10;;;5.00;;
2838;SDS011;1427;48.510;9.060;2022-07-21T09:44:49;52.30;;;4.47;;
2838;SDS011;1427;48.510;9.060;2022-07-21T09:47:23;49.50;;;4.63;;
2838;SDS011;1427;48.510;9.060;2022-07-21T09:49:54;52.17;;;4.97;;
2838;SDS011;1427;48.510;9.060;2022-07-21T09:52:43;53.23;;;5.43;;
2838;SDS011;1427;48.510;9.060;2022-07-21T09:55:12;51.77;;;4.50;;
2838;SDS011;1427;48.510;9.060;2022-07-21T09:57:42;51.53;;;4.60;;
2838;SDS011;1427;48.510;9.060;2022-07-21T10:00:12;51.27;;;4.80;;
2838;SDS011;1427;48.510;9.060;2022-07-21T10:02:47;50.73;;;4.97;;
2838;SDS011;1427;48.510;9.060;2022-07-21T10:05:16;50.20;;;5.37;;
2838;SDS011;1427;48.510;9.060;2022-07-21T10:07:51;49.77;;;4.30;;
2838;SDS011;1427;48.510;9.060;2022-07-21T10:10:20;51.50;;;4.43;;
2838;SDS011;1427;48.510;9.060;2022-07-21T10:13:08;50.60;;;4.63;;
2838;SDS011;1427;48.510;9.060;2022-07-21T10:15:37;54.57;;;5.17;;
2838;SDS011;1427;48.510;9.060;2022-07-21T10:18:07;52.33;;;5.10;;
2838;SDS011;1427;48.510;9.060;2022-07-21T10:20:40;51.00;;;4.97;;
2838;SDS011;1427;48.510;9.060;2022-07-21T10:23:14;49.47;;;4.80;;
2838;SDS011;1427;48.510;9.060;2022-07-21T10:25:51;55.63;;;5.77;;
2838;SDS011;1427;48.510;9.060;2022-07-21T10:28:20;50.90;;;5.03;;
2838;SDS011;1427;48.510;9.060;2022-07-21T10:30:50;52.03;;;4.53;;
2838;SDS011;1427;48.510;9.060;2022-07-21T10:33:50;50.20;;;4.63;;
2838;SDS011;1427;48.510;9.060;2022-07-21T10:36:42;51.53;;;5.13;;
2838;SDS011;1427;48.510;9.060;2022-07-21T10:39:19;49.20;;;3.70;;
2838;SDS011;1427;48.510;9.060;2022-07-21T10:41:50;49.43;;;4.20;;
2838;SDS011;1427;48.510;9.060;2022-07-21T10:44:39;50.63;;;4.77;;
2838;SDS011;1427;48.510;9.060;2022-07-21T10:47:09;50.63;;;5.00;;
2838;SDS011;1427;48.510;9.060;2022-07-21T10:49:49;60.20;;;4.83;;
2838;SDS011;1427;48.510;9.060;2022-07-21T10:55:25;50.53;;;4.70;;
2838;SDS011;1427;48.510;9.060;2022-07-21T11:00:53;49.60;;;4.87;;
2838;SDS011;1427;48.510;9.060;2022-07-21T11:03:24;51.60;;;4.90;;
2838;SDS011;1427;48.510;9.060;2022-07-21T11:09:05;49.73;;;4.57;;
2838;SDS011;1427;48.510;9.060;2022-07-21T11:11:38;52.97;;;5.43;;
2838;SDS011;1427;48.510;9.060;2022-07-21T11:14:34;47.90;;;3.43;;
2838;SDS011;1427;48.510;9.060;2022-07-21T11:17:03;49.17;;;4.10;;
2838;SDS011;1427;48.510;9.060;2022-07-21T11:19:33;49.10;;;3.97;;
2838;SDS011;1427;48.510;9.060;2022-07-21T11:22:10;54.70;;;4.70;;
2838;SDS011;1427;48.510;9.060;2022-07-21T11:24:41;50.87;;;4.07;;
2838;SDS011;1427;48.510;9.060;2022-07-21T11:27:11;49.40;;;4.00;;
2838;SDS011;1427;48.510;9.060;2022-07-21T11:29:42;49.43;;;4.00;;
2838;SDS011;1427;48.510;9.060;2022-07-21T11:32:12;49.70;;;3.80;;
2838;SDS011;1427;48.510;9.060;2022-07-21T11:34:43;50.90;;;4.00;;
2838;SDS011;1427;48.510;9.060;2022-07-21T11:37:15;50.00;;;4.63;;
2838;SDS011;1427;48.510;9.060;2022-07-21T11:40:03;49.30;;;4.07;;
2838;SDS011;1427;48.510;9.060;2022-07-21T11:42:34;49.57;;;4.30;;
2838;SDS011;1427;48.510;9.060;2022-07-21T11:45:03;48.10;;;3.77;;
2838;SDS011;1427;48.510;9.060;2022-07-21T11:47:32;49.17;;;3.73;;
2838;SDS011;1427;48.510;9.060;2022-07-21T11:50:01;47.70;;;3.50;;
2838;SDS011;1427;48.510;9.060;2022-07-21T11:52:34;48.57;;;4.20;;
2838;SDS011;1427;48.510;9.060;2022-07-21T11:55:05;49.07;;;4.60;;
2838;SDS011;1427;48.510;9.060;2022-07-21T11:57:35;49.30;;;4.03;;
2838;SDS011;1427;48.510;9.060;2022-07-21T12:00:09;50.00;;;4.57;;
2838;SDS011;1427;48.510;9.060;2022-07-21T12:02:39;52.70;;;4.40;;
2838;SDS011;1427;48.510;9.060;2022-07-21T12:05:08;49.40;;;4.03;;
2838;SDS011;1427;48.510;9.060;2022-07-21T12:07:39;51.17;;;4.10;;
2838;SDS011;1427;48.510;9.060;2022-07-21T12:10:09;48.20;;;3.77;;
2838;SDS011;1427;48.510;9.060;2022-07-21T12:12:39;50.80;;;3.70;;
2838;SDS011;1427;48.510;9.060;2022-07-21T12:15:12;51.40;;;4.10;;
2838;SDS011;1427;48.510;9.060;2022-07-21T12:17:43;50.60;;;4.27;;
2838;SDS011;1427;48.510;9.060;2022-07-21T12:20:13;48.80;;;3.70;;
2838;SDS011;1427;48.510;9.060;2022-07-21T12:22:44;48.67;;;3.80;;
2838;SDS011;1427;48.510;9.060;2022-07-21T12:25:14;47.77;;;3.70;;
2838;SDS011;1427;48.510;9.060;2022-07-21T12:27:43;48.67;;;3.30;;
2838;SDS011;1427;48.510;9.060;2022-07-21T12:30:29;48.67;;;3.67;;
2838;SDS011;1427;48.510;9.060;2022-07-21T12:33:06;48.93;;;4.20;;
2838;SDS011;1427;48.510;9.060;2022-07-21T12:35:35;49.03;;;3.83;;
2838;SDS011;1427;48.510;9.060;2022-07-21T12:38:07;48.75;;;4.38;;
2838;SDS011;1427;48.510;9.060;2022-07-21T12:40:38;48.72;;;3.85;;
2838;SDS011;1427;48.510;9.060;2022-07-21T12:43:27;50.17;;;4.00;;
2838;SDS011;1427;48.510;9.060;2022-07-21T12:45:57;49.97;;;5.10;;
2838;SDS011;1427;48.510;9.060;2022-07-21T12:48:27;48.07;;;3.77;;
2838;SDS011;1427;48.510;9.060;2022-07-21T12:50:58;49.00;;;4.20;;
2838;SDS011;1427;48.510;9.060;2022-07-21T12:53:28;50.27;;;4.20;;
2838;SDS011;1427;48.510;9.060;2022-07-21T12:55:57;48.30;;;3.90;;
2838;SDS011;1427;48.510;9.060;2022-07-21T12:58:25;48.03;;;3.50;;
2838;SDS011;1427;48.510;9.060;2022-07-21T13:00:54;49.60;;;4.40;;
2838;SDS011;1427;48.510;9.060;2022-07-21T13:03:22;48.83;;;4.03;;
2838;SDS011;1427;48.510;9.060;2022-07-21T13:05:56;49.07;;;4.20;;
2838;SDS011;1427;48.510;9.060;2022-07-21T13:08:25;48.60;;;3.90;;
2838;SDS011;1427;48.510;9.060;2022-07-21T13:10:54;47.25;;;3.50;;
2838;SDS011;1427;48.510;9.060;2022-07-21T13:13:22;47.70;;;3.37;;
2838;SDS011;1427;48.510;9.060;2022-07-21T13:15:50;48.60;;;3.83;;
2838;SDS011;1427;48.510;9.060;2022-07-21T13:18:19;48.33;;;3.77;;
2838;SDS011;1427;48.510;9.060;2022-07-21T13:20:48;49.50;;;4.50;;
2838;SDS011;1427;48.510;9.060;2022-07-21T13:23:16;49.92;;;3.95;;
2838;SDS011;1427;48.510;9.060;2022-07-21T13:25:45;48.22;;;3.83;;
2838;SDS011;1427;48.510;9.060;2022-07-21T13:28:30;50.97;;;4.32;;
2838;SDS011;1427;48.510;9.060;2022-07-21T13:31:01;50.05;;;4.65;;
2838;SDS011;1427;48.510;9.060;2022-07-21T13:33:30;49.13;;;4.63;;
2838;SDS011;1427;48.510;9.060;2022-07-21T13:35:59;48.17;;;3.63;;
2838;SDS011;1427;48.510;9.060;2022-07-21T13:38:27;49.17;;;4.35;;
2838;SDS011;1427;48.510;9.060;2022-07-21T13:40:55;49.38;;;4.05;;
2838;SDS011;1427;48.510;9.060;2022-07-21T13:43:45;49.38;;;4.43;;
2838;SDS011;1427;48.510;9.060;2022-07-21T13:46:13;50.42;;;4.70;;
2838;SDS011;1427;48.510;9.060;2022-07-21T13:48:42;47.42;;;3.15;;
2838;SDS011;1427;48.510;9.060;2022-07-21T13:51:11;48.30;;;3.75;;
2838;SDS011;1427;48.510;9.060;2022-07-21T13:53:39;48.13;;;3.58;;
2838;SDS011;1427;48.510;9.060;2022-07-21T13:56:09;49.45;;;3.97;;
2838;SDS011;1427;48.510;9.060;2022-07-21T13:58:37;48.08;;;3.95;;
2838;SDS011;1427;48.510;9.060;2022-07-21T14:01:07;49.20;;;3.80;;
2838;SDS011;1427;48.510;9.060;2022-07-21T14:03:36;48.60;;;3.70;;
2838;SDS011;1427;48.510;9.060;2022-07-21T14:06:05;48.88;;;3.58;;
2838;SDS011;1427;48.510;9.060;2022-07-21T14:08:33;48.65;;;4.10;;
2838;SDS011;1427;48.510;9.060;2022-07-21T14:11:01;48.95;;;3.78;;
2838;SDS011;1427;48.510;9.060;2022-07-21T14:13:30;48.58;;;3.33;;
2838;SDS011;1427;48.510;9.060;2022-07-21T14:15:58;49.33;;;4.38;;
2838;SDS011;1427;48.510;9.060;2022-07-21T14:18:27;49.58;;;4.70;;
2838;SDS011;1427;48.510;9.060;2022-07-21T14:20:55;49.22;;;4.40;;
2838;SDS011;1427;48.510;9.060;2022-07-21T14:23:23;48.13;;;3.60;;
2838;SDS011;1427;48.510;9.060;2022-07-21T14:25:51;48.30;;;3.65;;
2838;SDS011;1427;48.510;9.060;2022-07-21T14:28:20;48.40;;;3.75;;
2838;SDS011;1427;48.510;9.060;2022-07-21T14:30:49;48.53;;;3.83;;
2838;SDS011;1427;48.510;9.060;2022-07-21T14:33:25;48.40;;;3.88;;
2838;SDS011;1427;48.510;9.060;2022-07-21T14:35:56;48.25;;;3.78;;
2838;SDS011;1427;48.510;9.060;2022-07-21T14:38:24;48.08;;;3.45;;
2838;SDS011;1427;48.510;9.060;2022-07-21T14:40:52;47.30;;;3.00;;
2838;SDS011;1427;48.510;9.060;2022-07-21T14:43:20;48.97;;;3.60;;
2838;SDS011;1427;48.510;9.060;2022-07-21T14:45:48;48.80;;;3.13;;
2838;SDS011;1427;48.510;9.060;2022-07-21T14:48:16;48.65;;;3.60;;
2838;SDS011;1427;48.510;9.060;2022-07-21T14:50:48;48.65;;;3.83;;
2838;SDS011;1427;48.510;9.060;2022-07-21T14:53:17;51.55;;;3.53;;
2838;SDS011;1427;48.510;9.060;2022-07-21T14:55:45;48.35;;;3.45;;
2838;SDS011;1427;48.510;9.060;2022-07-21T14:58:13;50.38;;;4.10;;
2838;SDS011;1427;48.510;9.060;2022-07-21T15:00:41;48.00;;;3.90;;
2838;SDS011;1427;48.510;9.060;2022-07-21T15:03:09;49.25;;;3.95;;
2838;SDS011;1427;48.510;9.060;2022-07-21T15:05:38;48.47;;;4.07;;
2838;SDS011;1427;48.510;9.060;2022-07-21T15:08:06;47.97;;;3.53;;
2838;SDS011;1427;48.510;9.060;2022-07-21T15:10:40;47.08;;;3.35;;
2838;SDS011;1427;48.510;9.060;2022-07-21T15:13:09;48.80;;;3.88;;
2838;SDS011;1427;48.510;9.060;2022-07-21T15:15:38;48.42;;;3.65;;
2838;SDS011;1427;48.510;9.060;2022-07-21T15:18:07;48.65;;;4.18;;
2838;SDS011;1427;48.510;9.060;2022-07-21T15:20:35;49.85;;;4.30;;
2838;SDS011;1427;48.510;9.060;2022-07-21T15:23:03;48.42;;;3.70;;
2838;SDS011;1427;48.510;9.060;2022-07-21T15:25:31;50.58;;;4.32;;
2838;SDS011;1427;48.510;9.060;2022-07-21T15:28:00;47.50;;;3.38;;
2838;SDS011;1427;48.510;9.060;2022-07-21T15:30:30;47.58;;;3.75;;